Time;durP1;ratioP1;P1;durP2;ratioP2;P2;SDS_P1;SDS_P2;PMS_P1;PMS_P2;Temp;Humidity;BMP_temperature;BMP_pressure;BME280_temperature;BME280_humidity;BME280_pressure;Samples;Min_cycle;Max_cycle;Signal;HPM_P1;HPM_P2
2023/01/31 00:00:35;;;;;;;22.60;11.20;;;;;;;-0.63;100.00;100285.82;109968;1240;70127;-64
2023/01/31 00:03:21;;;;;;;24.10;10.70;;;;;;;-0.67;99.71;100283.39;109800;1241;71293;-65
2023/01/31 00:05:50;;;;;;;25.00;11.70;;;;;;;-0.63;98.46;100286.50;109882;1241;59860;-64
2023/01/31 00:08:19;;;;;;;23.10;11.30;;;;;;;-0.64;97.78;100286.19;109943;1241;60500;-66
2023/01/31 00:10:48;;;;;;;19.70;10.10;;;;;;;-0.69;99.82;100285.68;109941;1241;74829;-65
2023/01/31 00:13:16;;;;;;;18.60;9.60;;;;;;;-0.56;99.51;100285.41;109904;1240;72543;-64
2023/01/31 00:15:45;;;;;;;21.70;10.60;;;;;;;-0.58;99.53;100288.89;109943;1239;71814;-66
2023/01/31 00:18:14;;;;;;;24.60;10.90;;;;;;;-0.68;99.56;100288.38;109905;1240;72371;-64
2023/01/31 00:20:43;;;;;;;23.10;11.80;;;;;;;-0.71;99.56;100284.19;109760;1242;60513;-64
2023/01/31 00:23:12;;;;;;;21.90;11.30;;;;;;;-0.76;100.00;100289.01;109942;1241;61190;-65
2023/01/31 00:25:40;;;;;;;23.90;10.90;;;;;;;-0.74;100.00;100283.63;109814;1239;74230;-64
2023/01/31 00:28:09;;;;;;;24.20;10.20;;;;;;;-0.72;99.64;100280.14;109978;1241;72179;-65
2023/01/31 00:30:38;;;;;;;22.20;11.40;;;;;;;-0.70;99.48;100279.04;109977;1241;68434;-64
2023/01/31 00:33:07;;;;;;;23.80;11.80;;;;;;;-0.77;99.91;100279.63;109931;1239;72292;-64
2023/01/31 00:35:39;;;;;;;23.20;11.60;;;;;;;-0.81;100.00;100272.88;109948;1241;61290;-64
2023/01/31 00:38:08;;;;;;;21.60;11.80;;;;;;;-0.81;100.00;100276.65;109972;1240;60550;-64
2023/01/31 00:40:36;;;;;;;22.60;11.00;;;;;;;-0.69;100.00;100274.91;109801;1240;74379;-65
2023/01/31 00:43:06;;;;;;;25.10;10.20;;;;;;;-0.67;100.00;100271.95;109732;1241;73637;-65
2023/01/31 00:45:35;;;;;;;24.70;11.00;;;;;;;-0.70;100.00;100274.27;109751;1241;69169;-66
2023/01/31 00:48:05;;;;;;;23.80;11.10;;;;;;;-0.71;100.00;100275.65;109704;1244;72353;-65
2023/01/31 00:50:34;;;;;;;19.20;9.00;;;;;;;-0.62;100.00;100276.54;109775;1242;59849;-65
2023/01/31 00:53:03;;;;;;;22.20;10.00;;;;;;;-0.60;100.00;100279.04;109831;1242;59546;-65
2023/01/31 00:55:32;;;;;;;19.20;9.80;;;;;;;-0.61;99.97;100274.98;109689;1243;72421;-64
2023/01/31 00:58:03;;;;;;;23.70;10.80;;;;;;;-0.66;99.89;100275.48;109609;1245;70348;-64
2023/01/31 01:00:32;;;;;;;17.80;8.90;;;;;;;-0.64;100.00;100273.55;109517;1241;70638;-64
2023/01/31 01:03:01;;;;;;;20.20;10.10;;;;;;;-0.61;100.00;100277.90;109725;1243;71712;-64
2023/01/31 01:05:30;;;;;;;21.10;10.40;;;;;;;-0.66;99.99;100274.98;109793;1242;60258;-65
2023/01/31 01:07:59;;;;;;;21.00;10.60;;;;;;;-0.71;100.00;100273.62;109823;1241;61173;-65
2023/01/31 01:10:28;;;;;;;23.20;11.20;;;;;;;-0.71;99.94;100275.48;109722;1240;74022;-64
2023/01/31 01:12:56;;;;;;;24.20;11.80;;;;;;;-0.78;100.00;100276.41;109597;1241;72201;-64
2023/01/31 01:15:25;;;;;;;26.40;12.00;;;;;;;-0.72;100.00;100276.89;109737;1240;68535;-64
2023/01/31 01:17:55;;;;;;;19.60;10.70;;;;;;;-0.73;100.00;100275.73;109762;1241;71895;-64
2023/01/31 01:20:24;;;;;;;23.20;11.90;;;;;;;-0.71;100.00;100275.65;109644;1244;62125;-65
2023/01/31 01:22:54;;;;;;;23.00;11.40;;;;;;;-0.67;100.00;100277.59;109566;1241;61655;-65
2023/01/31 01:25:23;;;;;;;27.40;11.60;;;;;;;-0.62;100.00;100269.55;109454;1241;72170;-64
2023/01/31 01:27:52;;;;;;;25.20;11.80;;;;;;;-0.64;100.00;100270.29;109626;1242;69504;-66
2023/01/31 01:30:21;;;;;;;22.50;11.50;;;;;;;-0.62;100.00;100264.75;109474;1245;68630;-64
2023/01/31 01:32:50;;;;;;;21.90;10.80;;;;;;;-0.64;100.00;100260.20;109521;1244;72875;-65
2023/01/31 01:35:18;;;;;;;24.40;11.70;;;;;;;-0.66;99.94;100257.36;109522;1241;62415;-65
2023/01/31 01:37:48;;;;;;;21.60;9.90;;;;;;;-0.69;100.00;100252.15;109647;1241;60787;-64
2023/01/31 01:40:17;;;;;;;17.40;8.80;;;;;;;-0.65;100.00;100251.18;109676;1240;74825;-64
2023/01/31 01:42:46;;;;;;;21.10;10.20;;;;;;;-0.67;100.00;100248.67;109546;1241;71912;-63
2023/01/31 01:45:15;;;;;;;22.40;10.70;;;;;;;-0.74;100.00;100247.70;109599;1241;70864;-64
2023/01/31 01:47:58;;;;;;;20.40;9.70;;;;;;;-0.85;100.00;100241.75;109674;1245;72336;-64
2023/01/31 01:50:38;;;;;;;23.80;11.60;;;;;;;-0.90;100.00;100238.98;109595;1244;62017;-64
2023/01/31 01:53:19;;;;;;;27.00;11.30;;;;;;;-0.95;100.00;100238.85;109478;1241;59524;-65
2023/01/31 01:56:01;;;;;;;23.30;11.90;;;;;;;-0.94;100.00;100237.58;109635;1242;72389;-64
2023/01/31 01:58:35;;;;;;;22.30;11.20;;;;;;;-0.91;100.00;100235.95;109464;1241;69650;-64
2023/01/31 02:01:08;;;;;;;22.60;11.30;;;;;;;-0.88;100.00;100235.35;109655;1240;68851;-64
2023/01/31 02:03:38;;;;;;;22.80;11.40;;;;;;;-0.90;100.00;100231.45;109414;1240;71522;-64
2023/01/31 02:06:08;;;;;;;22.80;10.20;;;;;;;-0.87;100.00;100228.30;109626;1244;61657;-65
2023/01/31 02:08:40;;;;;;;19.90;10.00;;;;;;;-0.91;100.00;100229.45;109658;1240;61749;-64
2023/01/31 02:11:21;;;;;;;24.20;12.30;;;;;;;-0.93;100.00;100228.16;109606;1241;73064;-66
2023/01/31 02:13:58;;;;;;;23.20;10.40;;;;;;;-0.91;100.00;100228.95;109751;1242;70251;-65
2023/01/31 02:16:28;;;;;;;23.70;11.20;;;;;;;-0.92;100.00;100228.98;109586;1240;69685;-66
2023/01/31 02:18:57;;;;;;;22.20;10.70;;;;;;;-0.95;100.00;100224.63;109590;1245;74367;-66
2023/01/31 02:21:54;;;;;;;22.20;11.00;;;;;;;-0.96;100.00;100226.38;109530;1241;62429;-65
2023/01/31 02:24:53;;;;;;;23.80;11.90;;;;;;;-0.99;100.00;100230.92;109757;1241;59234;-65
2023/01/31 02:27:47;;;;;;;21.70;11.60;;;;;;;-0.97;100.00;100229.30;109526;1241;74328;-65
2023/01/31 02:31:15;;;;;;;21.30;10.60;;;;;;;-0.95;100.00;100226.36;109565;1241;70106;-64
2023/01/31 02:34:03;;;;;;;24.20;10.20;;;;;;;-0.93;99.97;100217.73;109556;1245;68524;-63
2023/01/31 02:36:32;;;;;;;20.80;9.60;;;;;;;-0.92;99.79;100217.02;109427;1244;72938;-65
2023/01/31 02:39:27;;;;;;;24.00;10.20;;;;;;;-0.96;99.81;100219.17;109532;1240;62546;-65
2023/01/31 02:42:41;;;;;;;21.50;10.40;;;;;;;-1.00;99.94;100226.02;109385;1241;62286;-66
2023/01/31 02:45:34;;;;;;;;;;;;;;;-1.00;99.78;100231.98;109388;1241;74496;-64
2023/01/31 02:48:37;;;;;;;20.70;9.10;;;;;;;-1.05;100.00;100237.59;109351;1241;72567;-67
2023/01/31 02:51:28;;;;;;;22.30;10.90;;;;;;;-1.04;100.00;100235.69;109503;1242;68976;-66
2023/01/31 02:54:20;;;;;;;26.90;13.10;;;;;;;-1.00;100.00;100226.33;109347;1242;74026;-66
2023/01/31 02:56:51;;;;;;;28.20;12.80;;;;;;;-1.01;100.00;100230.13;109400;1245;60087;-65
2023/01/31 02:59:26;;;;;;;24.80;11.90;;;;;;;-0.96;100.00;100231.36;109448;1241;59617;-65
2023/01/31 03:02:01;;;;;;;24.40;13.20;;;;;;;-0.94;100.00;100232.30;109458;1241;72442;-67
2023/01/31 03:04:32;;;;;;;26.10;12.30;;;;;;;-0.91;100.00;100237.15;109443;1244;70740;-65
2023/01/31 03:07:28;;;;;;;22.30;11.50;;;;;;;-0.90;100.00;100240.55;109473;1241;69413;-65
2023/01/31 03:10:42;;;;;;;29.30;12.40;;;;;;;-0.88;100.00;100245.58;109544;1244;71333;-67
2023/01/31 03:14:06;;;;;;;26.70;11.50;;;;;;;-0.84;100.00;100245.11;109475;1245;61624;-66
2023/01/31 03:20:14;;;;;;;24.00;12.60;;;;;;;-0.82;100.00;100241.10;109721;1241;73562;-66
2023/01/31 03:22:54;;;;;;;23.00;12.60;;;;;;;-0.75;100.00;100246.23;109511;1249;69730;-66
2023/01/31 03:25:28;;;;;;;21.10;11.00;;;;;;;-0.71;100.00;100244.17;109660;1240;70542;-67
2023/01/31 03:28:05;;;;;;;22.90;11.70;;;;;;;-0.72;100.00;100244.23;109725;1243;71575;-68
2023/01/31 03:30:47;;;;;;;20.50;10.40;;;;;;;-0.74;99.90;100240.54;109528;1248;60995;-66
2023/01/31 03:33:24;;;;;;;20.90;10.20;;;;;;;-0.73;99.89;100241.49;109715;1244;58882;-66
2023/01/31 03:36:07;;;;;;;22.80;10.90;;;;;;;-0.66;99.47;100238.56;109704;1244;73172;-66
2023/01/31 03:38:51;;;;;;;24.40;11.00;;;;;;;-0.66;99.72;100237.52;109689;1245;69521;-66
2023/01/31 03:41:55;;;;;;;20.60;11.60;;;;;;;-0.65;98.98;100239.21;109802;1241;69768;-66
2023/01/31 03:44:52;;;;;;;19.50;10.20;;;;;;;-0.67;98.73;100239.97;109809;1241;74498;-66
2023/01/31 03:47:32;;;;;;;22.80;11.10;;;;;;;-0.68;98.50;100242.74;109734;1244;60104;-66
2023/01/31 03:50:07;;;;;;;23.10;10.60;;;;;;;-0.70;98.79;100242.95;109806;1241;60449;-66
2023/01/31 03:52:45;;;;;;;22.80;11.30;;;;;;;-0.65;98.78;100245.02;109731;1244;71026;-65
2023/01/31 03:55:52;;;;;;;24.20;12.20;;;;;;;-0.60;98.48;100249.45;109680;1241;70300;-65
2023/01/31 03:58:27;;;;;;;18.00;9.10;;;;;;;-0.56;98.50;100247.80;109815;1241;68979;-65
2023/01/31 04:01:05;;;;;;;24.30;12.20;;;;;;;-0.56;98.02;100245.39;109651;1241;73062;-65
2023/01/31 04:03:46;;;;;;;21.50;10.30;;;;;;;-0.60;97.72;100247.04;109717;1244;62068;-66
2023/01/31 04:06:16;;;;;;;23.80;11.10;;;;;;;-0.59;98.02;100249.41;109764;1241;60034;-66
2023/01/31 04:08:45;;;;;;;24.00;11.30;;;;;;;-0.52;98.05;100245.42;109658;1244;74360;-67
2023/01/31 04:11:20;;;;;;;22.90;11.10;;;;;;;-0.47;97.96;100243.73;109757;1241;71967;-67
2023/01/31 04:13:48;;;;;;;23.80;10.60;;;;;;;-0.47;97.74;100241.17;109777;1244;71093;-67
2023/01/31 04:16:17;;;;;;;19.70;10.40;;;;;;;-0.51;97.26;100240.27;109824;1242;71183;-67
2023/01/31 04:18:46;;;;;;;24.30;10.10;;;;;;;-0.53;97.30;100240.33;109784;1242;60314;-67
2023/01/31 04:21:15;;;;;;;20.90;11.10;;;;;;;-0.55;97.37;100243.45;109837;1242;58676;-67
2023/01/31 04:23:44;;;;;;;25.20;11.90;;;;;;;-0.51;97.42;100246.10;109819;1240;73636;-66
2023/01/31 04:26:13;;;;;;;23.70;10.90;;;;;;;-0.47;97.29;100248.35;109775;1240;71758;-67
2023/01/31 04:28:41;;;;;;;17.10;8.60;;;;;;;-0.44;97.20;100241.58;109626;1241;70890;-67
2023/01/31 04:31:10;;;;;;;22.80;11.40;;;;;;;-0.38;96.65;100245.29;109734;1241;72392;-69
2023/01/31 04:33:39;;;;;;;26.80;10.80;;;;;;;-0.43;96.34;100244.95;109806;1242;61551;-67
2023/01/31 04:36:09;;;;;;;21.30;11.10;;;;;;;-0.46;96.33;100246.91;109813;1241;58253;-67
2023/01/31 04:38:38;;;;;;;21.20;11.30;;;;;;;-0.49;96.60;100246.54;109721;1241;73318;-67
2023/01/31 04:41:07;;;;;;;23.20;11.70;;;;;;;-0.49;97.22;100252.36;109723;1241;69594;-66
2023/01/31 04:43:36;;;;;;;20.20;10.90;;;;;;;-0.42;96.94;100253.64;109819;1241;70024;-67
2023/01/31 04:46:05;;;;;;;22.90;12.30;;;;;;;-0.40;96.93;100257.48;109839;1241;74989;-70
2023/01/31 04:48:34;;;;;;;23.10;12.30;;;;;;;-0.47;97.61;100258.95;109873;1241;61706;-68
2023/01/31 04:51:03;;;;;;;23.10;12.00;;;;;;;-0.38;97.16;100259.32;109593;1241;61621;-67
2023/01/31 04:53:31;;;;;;;27.30;13.00;;;;;;;-0.39;96.55;100261.77;109894;1241;74811;-69
2023/01/31 04:56:01;;;;;;;26.10;13.20;;;;;;;-0.43;97.74;100264.27;109950;1240;71030;-68
2023/01/31 04:58:29;;;;;;;30.70;12.90;;;;;;;-0.40;98.01;100263.66;109920;1239;70025;-68
2023/01/31 05:00:59;;;;;;;26.30;13.50;;;;;;;-0.35;97.42;100268.77;109834;1240;74350;-66
2023/01/31 05:03:27;;;;;;;25.40;12.50;;;;;;;-0.33;97.90;100271.80;109884;1241;61710;-69
2023/01/31 05:05:56;;;;;;;20.80;10.80;;;;;;;-0.33;97.29;100274.19;109901;1241;60270;-68
2023/01/31 05:08:25;;;;;;;23.90;11.50;;;;;;;-0.26;96.41;100281.15;109946;1241;72405;-67
2023/01/31 05:11:00;;;;;;;22.00;10.10;;;;;;;-0.27;95.87;100282.54;109919;1241;70718;-68
2023/01/31 05:13:36;;;;;;;19.80;10.00;;;;;;;-0.27;95.32;100287.00;109739;1241;68259;-73
2023/01/31 05:16:10;;;;;;;22.90;11.10;;;;;;;-0.29;94.51;100290.50;109768;1241;72292;-70
2023/01/31 05:18:39;;;;;;;19.40;10.20;;;;;;;-0.33;94.04;100292.69;109901;1241;60472;-72
2023/01/31 05:21:09;;;;;;;19.90;10.40;;;;;;;-0.33;94.05;100283.27;109906;1239;61290;-69
2023/01/31 05:23:38;;;;;;;18.80;10.00;;;;;;;-0.33;94.16;100288.59;109953;1240;75511;-69
2023/01/31 05:26:07;;;;;;;17.70;9.20;;;;;;;-0.33;93.96;100289.95;109961;1238;71082;-69
2023/01/31 05:28:35;;;;;;;19.70;10.40;;;;;;;-0.30;93.72;100291.55;109847;1242;69663;-70
2023/01/31 05:31:06;;;;;;;20.40;10.30;;;;;;;-0.29;93.63;100293.05;109699;1241;74052;-67
2023/01/31 05:33:36;;;;;;;18.60;10.10;;;;;;;-0.28;93.67;100285.68;109808;1241;60879;-68
2023/01/31 05:36:05;;;;;;;21.60;10.30;;;;;;;-0.26;93.14;100290.92;109893;1238;61611;-70
2023/01/31 05:38:33;;;;;;;17.60;9.00;;;;;;;-0.23;92.95;100287.91;109742;1241;74927;-69
2023/01/31 05:41:02;;;;;;;18.40;9.40;;;;;;;-0.20;92.24;100289.84;109771;1241;70646;-69
2023/01/31 05:43:31;;;;;;;20.30;10.80;;;;;;;-0.18;92.09;100292.86;109789;1241;67887;-69
2023/01/31 05:46:03;;;;;;;14.40;7.70;;;;;;;-0.17;91.49;100294.04;109639;1241;73873;-69
2023/01/31 05:48:32;;;;;;;19.80;10.00;;;;;;;-0.15;91.40;100298.58;109589;1241;60742;-70
2023/01/31 05:51:00;;;;;;;22.20;10.40;;;;;;;-0.16;91.04;100300.85;109543;1241;61107;-69
2023/01/31 05:53:29;;;;;;;20.40;10.10;;;;;;;-0.12;91.20;100305.30;109573;1240;73118;-68
2023/01/31 05:55:58;;;;;;;26.50;11.40;;;;;;;-0.11;91.24;100301.70;109592;1240;70275;-69
2023/01/31 05:58:27;;;;;;;22.30;10.90;;;;;;;-0.11;91.30;100305.61;109597;1241;70251;-70
2023/01/31 06:00:56;;;;;;;19.70;10.30;;;;;;;-0.06;91.45;100307.48;109583;1241;72415;-70
2023/01/31 06:03:25;;;;;;;21.80;10.90;;;;;;;0.01;91.42;100312.75;109488;1242;60344;-69
2023/01/31 06:05:54;;;;;;;23.90;12.20;;;;;;;-0.01;89.90;100312.96;109615;1242;61139;-70
2023/01/31 06:08:23;;;;;;;30.70;15.30;;;;;;;0.03;90.43;100315.89;109602;1241;71968;-70
2023/01/31 06:10:52;;;;;;;31.40;16.40;;;;;;;0.09;91.18;100317.57;109494;1241;69581;-69
2023/01/31 06:13:21;;;;;;;28.70;15.00;;;;;;;0.08;91.78;100320.19;109598;1241;69623;-69
2023/01/31 06:15:50;;;;;;;24.50;14.60;;;;;;;0.08;91.68;100317.14;109534;1241;72310;-68
2023/01/31 06:18:18;;;;;;;23.10;13.10;;;;;;;0.13;91.65;100318.31;109587;1242;61733;-69
2023/01/31 06:20:47;;;;;;;22.30;13.80;;;;;;;0.18;91.37;100319.52;109553;1241;60239;-69
2023/01/31 06:23:16;;;;;;;20.70;13.00;;;;;;;0.21;90.80;100322.13;109625;1240;71631;-68
2023/01/31 06:25:49;;;;;;;23.30;14.00;;;;;;;0.23;90.50;100322.55;109607;1241;72195;-68
2023/01/31 06:28:18;;;;;;;24.50;13.70;;;;;;;0.27;90.57;100321.05;109478;1241;69371;-67
2023/01/31 06:30:47;;;;;;;28.30;15.30;;;;;;;0.24;91.34;100321.67;109534;1240;71951;-68
2023/01/31 06:33:17;;;;;;;21.50;13.10;;;;;;;0.30;90.64;100329.02;109545;1243;62203;-69
2023/01/31 06:35:45;;;;;;;29.20;15.10;;;;;;;0.38;90.24;100331.98;109552;1240;60926;-69
2023/01/31 06:38:15;;;;;;;27.30;14.50;;;;;;;0.46;90.10;100338.19;109558;1241;73010;-70
2023/01/31 06:40:43;;;;;;;29.60;15.30;;;;;;;0.41;88.58;100344.16;109630;1241;72187;-69
2023/01/31 06:43:12;;;;;;;32.30;17.50;;;;;;;0.51;88.93;100341.41;109650;1240;69883;-71
2023/01/31 06:45:44;;;;;;;28.80;17.20;;;;;;;0.45;89.81;100339.09;109582;1240;71197;-69
2023/01/31 06:48:13;;;;;;;39.70;18.60;;;;;;;0.49;89.16;100340.95;109638;1242;58327;-69
2023/01/31 06:50:43;;;;;;;32.80;17.30;;;;;;;0.55;89.18;100339.55;109653;1241;61090;-71
2023/01/31 06:53:12;;;;;;;34.70;15.70;;;;;;;0.63;89.40;100342.86;109621;1238;73354;-70
2023/01/31 06:55:41;;;;;;;29.60;15.70;;;;;;;0.69;88.77;100351.02;110012;1238;72173;-70
2023/01/31 06:58:09;;;;;;;31.50;17.70;;;;;;;0.77;88.12;100355.21;109889;1238;70756;-71
2023/01/31 07:00:38;;;;;;;34.00;18.40;;;;;;;0.70;86.98;100356.13;109904;1238;72609;-70
2023/01/31 07:03:07;;;;;;;29.90;17.30;;;;;;;0.85;86.93;100354.57;109865;1239;60476;-71
2023/01/31 07:05:36;;;;;;;32.50;17.00;;;;;;;0.85;85.83;100362.78;109858;1238;61135;-69
2023/01/31 07:08:04;;;;;;;27.40;16.40;;;;;;;0.87;87.69;100363.77;109984;1238;75023;-67
2023/01/31 07:10:33;;;;;;;38.20;16.90;;;;;;;0.93;88.14;100364.88;110006;1238;70688;-69
2023/01/31 07:13:02;;;;;;;27.50;16.40;;;;;;;0.97;87.24;100370.89;109889;1238;67867;-69
2023/01/31 07:15:31;;;;;;;33.90;19.00;;;;;;;1.09;87.04;100375.08;109908;1238;71056;-70
2023/01/31 07:18:00;;;;;;;33.60;17.80;;;;;;;1.12;86.90;100378.04;109979;1238;60344;-68
2023/01/31 07:20:29;;;;;;;31.00;16.20;;;;;;;1.18;86.85;100382.95;109971;1238;61162;-68
2023/01/31 07:22:58;;;;;;;30.40;16.20;;;;;;;1.26;85.93;100376.83;109837;1238;214979;-70
2023/01/31 07:25:29;;;;;;;26.50;15.30;;;;;;;1.30;86.08;100384.02;109854;1241;70636;-68
2023/01/31 07:27:57;;;;;;;24.50;13.00;;;;;;;1.32;86.17;100378.80;109914;1238;70467;-68
2023/01/31 07:30:27;;;;;;;20.30;11.90;;;;;;;1.34;85.21;100383.02;110008;1238;72429;-69
2023/01/31 07:32:56;;;;;;;23.30;11.90;;;;;;;1.31;84.51;100390.67;109859;1239;60676;-69
2023/01/31 07:35:25;;;;;;;22.90;11.10;;;;;;;1.30;84.76;100391.23;109909;1238;60236;-67
2023/01/31 07:37:54;;;;;;;20.30;12.00;;;;;;;1.26;84.53;100390.02;110029;1238;74088;-68
2023/01/31 07:40:22;;;;;;;26.20;13.00;;;;;;;1.22;84.55;100395.86;110016;1238;72500;-70
2023/01/31 07:42:57;;;;;;;23.70;13.50;;;;;;;1.21;84.41;100397.77;110038;1238;68270;-70
2023/01/31 07:45:26;;;;;;;24.50;14.30;;;;;;;1.23;84.43;100401.61;109732;1238;63115;-67
2023/01/31 07:47:58;;;;;;;23.50;13.30;;;;;;;1.19;83.97;100405.41;109909;1241;60481;-68
2023/01/31 07:50:27;;;;;;;21.50;11.90;;;;;;;1.18;83.27;100404.23;110017;1238;61714;-68
2023/01/31 07:52:58;;;;;;;23.60;13.00;;;;;;;1.20;83.54;100407.08;110000;1238;73320;-68
2023/01/31 07:55:27;;;;;;;26.10;13.50;;;;;;;1.11;81.95;100406.71;109669;1238;71812;-67
2023/01/31 07:57:56;;;;;;;24.80;12.90;;;;;;;1.19;82.08;100407.81;109920;1238;70990;-68
2023/01/31 08:03:32;;;;;;;27.00;12.90;;;;;;;1.22;82.28;100415.55;110030;1238;60989;-67
2023/01/31 08:06:09;;;;;;;25.70;14.10;;;;;;;1.24;81.63;100417.02;110062;1239;58237;-69
2023/01/31 08:08:40;;;;;;;29.80;17.70;;;;;;;1.29;82.02;100420.61;109946;1238;62970;-68
2023/01/31 08:11:10;;;;;;;36.00;19.00;;;;;;;1.32;82.08;100421.71;109755;1238;70399;-67
2023/01/31 08:13:39;;;;;;;27.20;14.50;;;;;;;1.33;82.24;100423.02;109639;1238;70500;-68
2023/01/31 08:16:09;;;;;;;26.60;14.60;;;;;;;1.30;81.09;100431.04;109921;1239;72619;-68
2023/01/31 08:18:38;;;;;;;21.00;12.90;;;;;;;1.35;81.27;100439.61;109751;1238;62590;-68
2023/01/31 08:21:10;;;;;;;23.20;12.30;;;;;;;1.34;81.63;100444.77;109874;1238;60686;-67
2023/01/31 08:23:40;;;;;;;19.40;12.00;;;;;;;1.33;81.40;100448.77;110049;1238;72210;-69
2023/01/31 08:26:29;;;;;;;19.30;10.60;;;;;;;1.32;81.08;100451.88;110052;1238;72205;-69
2023/01/31 08:28:58;;;;;;;18.60;10.10;;;;;;;1.24;81.69;100452.55;110095;1238;60810;-70
2023/01/31 08:31:27;;;;;;;22.40;11.90;;;;;;;1.10;81.22;100450.48;110037;1238;71311;-69
2023/01/31 08:33:57;;;;;;;15.70;8.00;;;;;;;1.09;82.15;100458.45;110051;1239;58881;-68
2023/01/31 08:36:31;;;;;;;15.50;8.90;;;;;;;0.97;82.86;100461.97;110023;1238;60231;-71
2023/01/31 08:39:02;;;;;;;16.00;8.90;;;;;;;0.89;83.38;100466.19;109870;1242;72759;-70
2023/01/31 08:41:33;;;;;;;15.50;8.80;;;;;;;0.81;83.78;100469.56;109945;1238;71348;-71
2023/01/31 08:44:03;;;;;;;13.70;7.90;;;;;;;0.71;84.25;100467.34;109703;1238;71562;-69
2023/01/31 08:46:36;;;;;;;13.90;8.30;;;;;;;0.67;84.84;100475.02;109756;1238;71718;-68
2023/01/31 08:49:06;;;;;;;41.30;27.60;;;;;;;0.63;85.72;100471.59;109989;1240;60423;-71
2023/01/31 08:51:35;;;;;;;17.30;9.60;;;;;;;0.65;86.58;100478.88;109879;1238;61826;-70
2023/01/31 08:54:03;;;;;;;20.20;10.50;;;;;;;0.60;88.80;100475.98;109977;1238;74662;-70
2023/01/31 08:56:32;;;;;;;18.60;10.00;;;;;;;0.68;87.94;100480.84;110002;1238;72586;-70
2023/01/31 08:59:01;;;;;;;25.10;13.70;;;;;;;0.71;88.38;100484.50;110006;1238;69542;-70
2023/01/31 09:01:31;;;;;;;21.00;13.00;;;;;;;0.73;88.70;100485.77;110000;1238;71876;-68
2023/01/31 09:04:00;;;;;;;16.00;8.90;;;;;;;0.74;89.02;100484.20;109961;1241;60666;-70
2023/01/31 09:06:29;;;;;;;18.60;9.80;;;;;;;0.86;88.61;100488.79;109749;1239;59037;-71
2023/01/31 09:08:58;;;;;;;16.00;8.60;;;;;;;0.74;90.40;100489.18;109890;1240;70668;-69
2023/01/31 09:11:29;;;;;;;13.50;7.00;;;;;;;0.88;88.64;100492.80;109974;1238;70350;-70
2023/01/31 09:13:58;;;;;;;21.00;10.70;;;;;;;0.83;88.45;100492.98;109775;1238;70435;-70
2023/01/31 09:16:27;;;;;;;19.70;10.60;;;;;;;0.90;88.10;100494.11;110054;1238;73561;-70
2023/01/31 09:18:56;;;;;;;16.70;10.20;;;;;;;0.91;88.59;100497.02;110018;1238;60294;-71
2023/01/31 09:21:25;;;;;;;18.50;11.00;;;;;;;1.00;87.84;100493.94;110050;1240;60038;-69
2023/01/31 09:23:57;;;;;;;18.60;10.30;;;;;;;0.91;88.71;100491.66;109909;1241;72528;-70
2023/01/31 09:26:26;;;;;;;18.20;10.20;;;;;;;0.94;88.37;100491.23;109798;1238;72093;-68
2023/01/31 09:28:56;;;;;;;18.40;10.70;;;;;;;0.98;87.79;100489.73;110062;1238;70688;-70
2023/01/31 09:31:25;;;;;;;21.50;11.50;;;;;;;1.01;87.44;100484.63;109926;1241;71713;-69
2023/01/31 09:33:54;;;;;;;18.90;10.90;;;;;;;0.98;87.48;100483.36;109891;1238;58366;-70
2023/01/31 09:36:26;;;;;;;21.20;13.00;;;;;;;0.94;88.81;100485.23;110032;1238;60245;-69
2023/01/31 09:38:56;;;;;;;21.40;11.70;;;;;;;0.96;88.68;100483.44;110016;1238;73752;-71
2023/01/31 09:41:50;;;;;;;17.10;11.00;;;;;;;1.03;88.54;100476.66;109890;1241;68925;-69
2023/01/31 09:44:28;;;;;;;16.20;9.80;;;;;;;1.23;87.45;100476.08;110018;1241;60535;-71
2023/01/31 09:47:20;;;;;;;22.90;14.00;;;;;;;1.40;85.88;100475.98;109703;1244;72597;-69
2023/01/31 09:50:22;;;;;;;28.70;14.30;;;;;;;1.37;86.82;100478.64;109946;1238;61085;-69
2023/01/31 09:52:51;;;;;;;24.60;13.50;;;;;;;1.42;86.18;100479.66;109765;1238;61671;-70
2023/01/31 09:55:28;;;;;;;24.90;14.90;;;;;;;1.51;85.95;100477.78;109566;1238;74899;-69
2023/01/31 09:58:15;;;;;;;26.10;14.00;;;;;;;1.52;85.71;100476.70;109800;1238;72585;-70
2023/01/31 10:01:06;;;;;;;25.20;14.90;;;;;;;1.60;84.72;100481.34;109760;1241;59536;-69
2023/01/31 10:04:04;;;;;;;22.70;13.50;;;;;;;1.68;84.33;100478.80;109684;1242;73469;-70
2023/01/31 10:06:48;;;;;;;22.20;13.40;;;;;;;1.67;84.61;100476.96;109937;1241;63075;-69
2023/01/31 10:09:41;;;;;;;;;;;;;;;1.69;84.54;100479.99;110001;1238;61244;-72
2023/01/31 10:12:19;;;;;;;34.10;19.90;;;;;;;1.70;84.78;100482.38;110035;1238;63304;-70
2023/01/31 10:14:57;;;;;;;22.10;13.20;;;;;;;1.85;84.68;100483.31;110029;1238;72376;-70
2023/01/31 10:17:46;;;;;;;19.70;11.30;;;;;;;1.98;84.63;100481.73;109798;1238;70146;-69
2023/01/31 10:20:24;;;;;;;19.20;11.40;;;;;;;2.19;83.12;100482.11;109973;1238;73433;-69
2023/01/31 10:23:04;;;;;;;24.90;13.00;;;;;;;2.03;83.39;100478.27;109984;1241;61607;-69
2023/01/31 10:25:46;;;;;;;35.00;19.20;;;;;;;2.08;83.76;100471.73;109922;1241;57829;-69
2023/01/31 10:28:58;;;;;;;21.80;12.90;;;;;;;2.13;84.32;100472.20;109922;1239;64400;-70
2023/01/31 10:31:37;;;;;;;15.10;8.30;;;;;;;2.42;83.20;100466.00;110036;1239;61682;-69
2023/01/31 10:34:20;;;;;;;19.70;11.80;;;;;;;2.46;82.95;100464.63;110000;1238;60290;-71
2023/01/31 10:37:18;;;;;;;25.80;13.70;;;;;;;2.33;83.90;100464.83;109972;1238;72920;-69
2023/01/31 10:39:57;;;;;;;18.10;11.50;;;;;;;2.34;84.48;100463.77;109910;1238;58322;-69
2023/01/31 10:42:33;;;;;;;20.30;12.50;;;;;;;2.39;84.35;100460.12;109779;1244;57749;-70
2023/01/31 10:45:08;;;;;;;37.20;18.20;;;;;;;2.41;83.69;100458.83;109700;1244;72371;-70
2023/01/31 10:47:52;;;;;;;20.80;12.10;;;;;;;2.38;84.03;100456.19;109980;1238;72117;-69
2023/01/31 10:50:40;;;;;;;24.90;12.10;;;;;;;2.45;83.81;100456.79;109877;1241;60290;-71
2023/01/31 10:53:42;;;;;;;30.80;15.20;;;;;;;2.55;83.09;100457.19;109854;1238;63340;-71
2023/01/31 10:56:34;;;;;;;28.80;14.70;;;;;;;2.60;82.97;100454.90;110014;1239;58202;-70
2023/01/31 10:59:21;;;;;;;24.00;13.50;;;;;;;2.60;82.47;100448.89;110014;1238;61169;-70
2023/01/31 11:01:50;;;;;;;23.10;13.30;;;;;;;2.76;81.95;100445.27;109898;1241;74802;-70
2023/01/31 11:04:34;;;;;;;21.90;13.90;;;;;;;2.77;82.65;100447.80;109846;1238;73647;-70
2023/01/31 11:07:04;;;;;;;19.20;10.30;;;;;;;2.77;82.00;100447.10;109991;1238;70989;-70
2023/01/31 11:09:40;;;;;;;22.50;12.80;;;;;;;2.91;81.83;100438.94;109670;1242;73577;-70
2023/01/31 11:12:09;;;;;;;22.60;14.00;;;;;;;2.96;81.91;100449.71;109718;1241;61704;-70
2023/01/31 11:14:38;;;;;;;21.60;13.20;;;;;;;2.92;82.14;100445.94;109768;1240;61653;-70
2023/01/31 11:17:20;;;;;;;20.10;12.40;;;;;;;3.04;81.01;100451.09;109746;1241;73995;-70
2023/01/31 11:19:55;;;;;;;18.70;11.90;;;;;;;3.05;80.57;100449.84;109741;1241;62172;-70
2023/01/31 11:22:32;;;;;;;16.30;9.60;;;;;;;3.09;80.28;100450.00;109546;1242;69745;-67
2023/01/31 11:25:05;;;;;;;20.60;10.80;;;;;;;3.14;79.92;100449.91;109630;1241;65725;-70
2023/01/31 11:27:42;;;;;;;16.10;9.20;;;;;;;3.11;80.15;100456.27;109580;1241;62094;-71
2023/01/31 11:30:35;;;;;;;18.40;10.90;;;;;;;3.09;79.25;100451.54;109637;1241;58314;-70
2023/01/31 11:33:04;;;;;;;20.40;11.90;;;;;;;2.97;79.79;100453.13;109797;1240;74284;-70
2023/01/31 11:35:34;;;;;;;18.30;10.80;;;;;;;2.90;79.97;100460.64;109788;1242;71851;-68
2023/01/31 11:38:22;;;;;;;18.80;11.90;;;;;;;2.84;80.16;100460.55;109471;1240;59719;-69
2023/01/31 11:40:51;;;;;;;22.30;12.10;;;;;;;2.76;80.47;100461.62;109446;1240;63314;-70
2023/01/31 11:43:20;;;;;;;16.30;10.70;;;;;;;2.75;80.34;100462.86;109614;1242;59960;-70